Megan B. Settoon — WDD7489 — position and weather

sailwx.info

Track history (hours):
 
Tides and Currents Weather Stations Pressure Air Temp Water Temp Dewpoint Dewpoint Depression Visibility Wind Speed Wind Dir Waves Ship Positions

Megan B. Settoon

Owner: Settoon Towing, L.L.C., Pierre Part, LA. More information available from US FCC via Universal Licensing System and Coast Guard Vessel Documentation Center.

Last reported at 2018-Feb-23 22:34 UTC. Time now 2018-Feb-25 00:02 UTC.
Position N 29°50' W 091°58'.

Length 30 m; draft 6 m.

MMSI: 367187140.

Date/timePositionNaut miles runAvg speedWind from/ knotsBaromVisibWave heightAir tempDewpointWater temp
2018-Feb-23 22:34N 29°50' W 091°58'1 7.1
2018-Feb-23 22:22N 29°50' W 091°60'3 7.0
2018-Feb-23 22:00N 29°49' W 092°03'4 7.2
2018-Feb-23 21:30N 29°48' W 092°06'4 7.0
2018-Feb-23 21:00N 29°47' W 092°10'2 3.7
2018-Feb-23 20:30N 29°47' W 092°12'2 4.8
2018-Feb-23 20:00N 29°48' W 092°15'3 6.5
2018-Feb-23 19:30N 29°50' W 092°18'56 3.9
2018-Feb-23 05:00N 30°08' W 093°19'0 0.0
2018-Feb-23 04:30N 30°08' W 093°19'0 0.0
2018-Feb-23 04:00N 30°08' W 093°19'0 0.0
2018-Feb-23 03:30N 30°08' W 093°19'0 0.1
2018-Feb-23 03:00N 30°08' W 093°19'2 4.0
2018-Feb-23 02:30N 30°06' W 093°20'2 3.7
2018-Feb-23 02:00N 30°05' W 093°18'1 2.9
2018-Feb-23 01:30N 30°04' W 093°16'3 5.4
2018-Feb-23 01:00N 30°02' W 093°15'3 5.2
2018-Feb-23 00:30N 29°60' W 093°13'3 6.0
2018-Feb-23 00:00N 29°58' W 093°11'  
2018-Feb-20 09:44N 29°51' W 092°22'2 6.1
2018-Feb-20 09:29N 29°51' W 092°20'3 5.3
2018-Feb-20 09:00N 29°49' W 092°17'2 4.2
2018-Feb-20 08:31N 29°48' W 092°15'4 6.8
2018-Feb-20 07:58N 29°47' W 092°11'3 6.0
2018-Feb-20 07:30N 29°47' W 092°08'4 7.0
2018-Feb-20 07:00N 29°48' W 092°04'3 6.0
2018-Feb-20 06:30N 29°49' W 092°01'63 2.5
2018-Feb-19 05:29N 29°32' W 090°51'3 5.7
2018-Feb-19 05:00N 29°32' W 090°48'2 4.9
2018-Feb-19 04:30N 29°33' W 090°45'2 4.7
2018-Feb-19 04:00N 29°34' W 090°43'2 3.8
2018-Feb-19 03:30N 29°36' W 090°43'2 3.1
2018-Feb-19 03:00N 29°36' W 090°41'3 5.6
2018-Feb-19 02:30N 29°35' W 090°38'2 4.9
2018-Feb-19 02:00N 29°35' W 090°35'3 5.5
2018-Feb-19 01:30N 29°34' W 090°32'3 5.6
2018-Feb-19 01:00N 29°34' W 090°29'  
2018-Feb-16 00:14N 29°33' W 090°28'2 7.3
2018-Feb-15 23:59N 29°34' W 090°30'3 7.1
2018-Feb-15 23:30N 29°34' W 090°34'3 6.8
2018-Feb-15 23:00N 29°35' W 090°38'3 7.0
2018-Feb-15 22:30N 29°37' W 090°41'2 4.5
2018-Feb-15 22:00N 29°35' W 090°43'3 6.7
2018-Feb-15 21:30N 29°32' W 090°46'4 7.3
2018-Feb-15 21:00N 29°32' W 090°50'2 0.2
2018-Feb-15 14:10N 29°32' W 090°52'1 5.8
2018-Feb-15 14:00N 29°32' W 090°51'3 5.8
2018-Feb-15 13:30N 29°32' W 090°47'2 4.9
2018-Feb-15 13:00N 29°34' W 090°45'2 4.1
2018-Feb-15 12:30N 29°35' W 090°43'0 0.1
2018-Feb-15 12:00N 29°35' W 090°43'0 0.0
2018-Feb-15 11:30N 29°35' W 090°43'0 0.0
2018-Feb-15 11:00N 29°35' W 090°43'0 0.0
2018-Feb-15 10:29N 29°35' W 090°43'0 0.0
2018-Feb-15 10:00N 29°35' W 090°43'0 0.0
2018-Feb-15 09:30N 29°35' W 090°43'0 0.0
2018-Feb-15 09:00N 29°35' W 090°43'0 0.0
2018-Feb-15 08:30N 29°35' W 090°43'0 0.0
2018-Feb-15 08:00N 29°35' W 090°43'0 0.0
2018-Feb-15 07:30N 29°35' W 090°43'0 0.0
2018-Feb-15 07:00N 29°35' W 090°43'0 0.0
2018-Feb-15 06:30N 29°35' W 090°43'0 0.0
2018-Feb-15 06:00N 29°35' W 090°43'0 0.0
2018-Feb-15 05:30N 29°35' W 090°43'0 0.0
2018-Feb-15 05:00N 29°35' W 090°43'0 0.0
2018-Feb-15 04:30N 29°35' W 090°43'0 0.0
2018-Feb-15 04:00N 29°35' W 090°43'0 0.2
2018-Feb-15 03:30N 29°35' W 090°43'0 0.0
2018-Feb-15 03:00N 29°35' W 090°43'0 0.6
2018-Feb-15 02:30N 29°35' W 090°43'2 4.3
2018-Feb-15 02:00N 29°33' W 090°42'3 5.8
2018-Feb-15 01:30N 29°30' W 090°43'3 5.9
2018-Feb-15 01:00N 29°27' W 090°43'  
Track history (hours):
 
Tides and Currents Weather Stations Pressure Air Temp Water Temp Dewpoint Dewpoint Depression Visibility Wind Speed Wind Dir Waves Ship Positions

Megan B. Settoon

Owner: Settoon Towing, L.L.C., Pierre Part, LA. More information available from US FCC via Universal Licensing System and Coast Guard Vessel Documentation Center.

Last reported at 2018-Feb-23 22:34 UTC. Time now 2018-Feb-25 00:02 UTC.
Position N 29°50' W 091°58'.

Length 30 m; draft 6 m.

MMSI: 367187140.

Date/timePositionNaut miles runAvg speedWind from/ knotsBaromVisibWave heightAir tempDewpointWater temp
2018-Feb-23 22:34N 29°50' W 091°58'1 7.1
2018-Feb-23 22:22N 29°50' W 091°60'3 7.0
2018-Feb-23 22:00N 29°49' W 092°03'4 7.2
2018-Feb-23 21:30N 29°48' W 092°06'4 7.0
2018-Feb-23 21:00N 29°47' W 092°10'2 3.7
2018-Feb-23 20:30N 29°47' W 092°12'2 4.8
2018-Feb-23 20:00N 29°48' W 092°15'3 6.5
2018-Feb-23 19:30N 29°50' W 092°18'56 3.9
2018-Feb-23 05:00N 30°08' W 093°19'0 0.0
2018-Feb-23 04:30N 30°08' W 093°19'0 0.0
2018-Feb-23 04:00N 30°08' W 093°19'0 0.0
2018-Feb-23 03:30N 30°08' W 093°19'0 0.1
2018-Feb-23 03:00N 30°08' W 093°19'2 4.0
2018-Feb-23 02:30N 30°06' W 093°20'2 3.7
2018-Feb-23 02:00N 30°05' W 093°18'1 2.9
2018-Feb-23 01:30N 30°04' W 093°16'3 5.4
2018-Feb-23 01:00N 30°02' W 093°15'3 5.2
2018-Feb-23 00:30N 29°60' W 093°13'3 6.0
2018-Feb-23 00:00N 29°58' W 093°11'  
2018-Feb-20 09:44N 29°51' W 092°22'2 6.1
2018-Feb-20 09:29N 29°51' W 092°20'3 5.3
2018-Feb-20 09:00N 29°49' W 092°17'2 4.2
2018-Feb-20 08:31N 29°48' W 092°15'4 6.8
2018-Feb-20 07:58N 29°47' W 092°11'3 6.0
2018-Feb-20 07:30N 29°47' W 092°08'4 7.0
2018-Feb-20 07:00N 29°48' W 092°04'3 6.0
2018-Feb-20 06:30N 29°49' W 092°01'63 2.5
2018-Feb-19 05:29N 29°32' W 090°51'3 5.7
2018-Feb-19 05:00N 29°32' W 090°48'2 4.9
2018-Feb-19 04:30N 29°33' W 090°45'2 4.7
2018-Feb-19 04:00N 29°34' W 090°43'2 3.8
2018-Feb-19 03:30N 29°36' W 090°43'2 3.1
2018-Feb-19 03:00N 29°36' W 090°41'3 5.6
2018-Feb-19 02:30N 29°35' W 090°38'2 4.9
2018-Feb-19 02:00N 29°35' W 090°35'3 5.5
2018-Feb-19 01:30N 29°34' W 090°32'3 5.6
2018-Feb-19 01:00N 29°34' W 090°29'  
2018-Feb-16 00:14N 29°33' W 090°28'2 7.3
2018-Feb-15 23:59N 29°34' W 090°30'3 7.1
2018-Feb-15 23:30N 29°34' W 090°34'3 6.8
2018-Feb-15 23:00N 29°35' W 090°38'3 7.0
2018-Feb-15 22:30N 29°37' W 090°41'2 4.5
2018-Feb-15 22:00N 29°35' W 090°43'3 6.7
2018-Feb-15 21:30N 29°32' W 090°46'4 7.3
2018-Feb-15 21:00N 29°32' W 090°50'2 0.2
2018-Feb-15 14:10N 29°32' W 090°52'1 5.8
2018-Feb-15 14:00N 29°32' W 090°51'3 5.8
2018-Feb-15 13:30N 29°32' W 090°47'2 4.9
2018-Feb-15 13:00N 29°34' W 090°45'2 4.1
2018-Feb-15 12:30N 29°35' W 090°43'0 0.1
2018-Feb-15 12:00N 29°35' W 090°43'0 0.0
2018-Feb-15 11:30N 29°35' W 090°43'0 0.0
2018-Feb-15 11:00N 29°35' W 090°43'0 0.0
2018-Feb-15 10:29N 29°35' W 090°43'0 0.0
2018-Feb-15 10:00N 29°35' W 090°43'0 0.0
2018-Feb-15 09:30N 29°35' W 090°43'0 0.0
2018-Feb-15 09:00N 29°35' W 090°43'0 0.0
2018-Feb-15 08:30N 29°35' W 090°43'0 0.0
2018-Feb-15 08:00N 29°35' W 090°43'0 0.0
2018-Feb-15 07:30N 29°35' W 090°43'0 0.0
2018-Feb-15 07:00N 29°35' W 090°43'0 0.0
2018-Feb-15 06:30N 29°35' W 090°43'0 0.0
2018-Feb-15 06:00N 29°35' W 090°43'0 0.0
2018-Feb-15 05:30N 29°35' W 090°43'0 0.0
2018-Feb-15 05:00N 29°35' W 090°43'0 0.0
2018-Feb-15 04:30N 29°35' W 090°43'0 0.0
2018-Feb-15 04:00N 29°35' W 090°43'0 0.2
2018-Feb-15 03:30N 29°35' W 090°43'0 0.0
2018-Feb-15 03:00N 29°35' W 090°43'0 0.6
2018-Feb-15 02:30N 29°35' W 090°43'2 4.3
2018-Feb-15 02:00N 29°33' W 090°42'3 5.8
2018-Feb-15 01:30N 29°30' W 090°43'3 5.9
2018-Feb-15 01:00N 29°27' W 090°43'  

Dump ship's entire track history